Time;durP1;ratioP1;P1;durP2;ratioP2;P2;SDS_P1;SDS_P2;PMS_P1;PMS_P2;Temp;Humidity;BMP_temperature;BMP_pressure;BME280_temperature;BME280_humidity;BME280_pressure;Samples;Min_cycle;Max_cycle;Signal;HPM_P1;HPM_P2
2021/06/18 00:02:10;;;;;;;9.98;6.65;;;19.10;99.90;;;;;;4993315;28;20462;-73
2021/06/18 00:04:35;;;;;;;8.88;6.97;;;19.00;99.90;;;;;;5010925;28;20018;-74
2021/06/18 00:07:01;;;;;;;9.05;6.57;;;19.00;99.90;;;;;;5011012;28;20032;-74
2021/06/18 00:09:26;;;;;;;8.48;7.18;;;18.90;99.90;;;;;;5010739;28;20555;-74
2021/06/18 00:11:52;;;;;;;9.23;7.10;;;18.80;99.90;;;;;;5010657;28;20518;-74
2021/06/18 00:14:17;;;;;;;8.93;7.53;;;18.70;99.90;;;;;;5010585;28;20039;-74
2021/06/18 00:16:43;;;;;;;7.88;6.57;;;18.70;99.90;;;;;;5010463;28;20042;-74
2021/06/18 00:19:09;;;;;;;8.05;6.68;;;18.60;99.90;;;;;;4992945;28;20057;-74
2021/06/18 00:21:34;;;;;;;10.90;7.72;;;18.50;99.90;;;;;;4992876;28;20026;-74
2021/06/18 00:24:00;;;;;;;9.57;8.07;;;18.50;99.90;;;;;;4992827;28;20022;-74
2021/06/18 00:26:25;;;;;;;9.75;7.22;;;18.40;99.90;;;;;;4992635;28;20033;-74
2021/06/18 00:28:51;;;;;;;8.18;7.05;;;18.40;99.90;;;;;;4992803;28;20034;-74
2021/06/18 00:31:17;;;;;;;10.88;9.00;;;18.30;99.90;;;;;;4992611;28;20398;-74
2021/06/18 00:33:43;;;;;;;9.73;7.38;;;18.20;99.90;;;;;;5010286;28;20040;-74
2021/06/18 00:36:09;;;;;;;8.45;7.55;;;18.20;99.90;;;;;;5010146;28;20045;-74
2021/06/18 00:38:34;;;;;;;8.38;7.50;;;18.10;99.90;;;;;;5010244;28;20014;-74
2021/06/18 00:41:00;;;;;;;7.32;6.60;;;18.10;99.90;;;;;;5010057;28;20029;-74
2021/06/18 00:43:26;;;;;;;10.77;7.95;;;18.00;99.90;;;;;;4992523;28;20088;-74
2021/06/18 00:45:51;;;;;;;8.48;7.57;;;17.90;99.90;;;;;;4992463;28;20564;-74
2021/06/18 00:48:20;;;;;;;10.85;8.02;;;17.90;99.90;;;;;;5010098;28;20020;-73
2021/06/18 00:50:47;;;;;;;8.00;7.20;;;17.80;99.90;;;;;;5010002;28;20372;-74
2021/06/18 00:53:13;;;;;;;10.38;8.65;;;17.80;99.90;;;;;;5009993;28;20041;-74
2021/06/18 00:55:39;;;;;;;10.60;8.05;;;17.70;99.90;;;;;;4992157;28;20022;-74
2021/06/18 00:58:06;;;;;;;9.15;7.75;;;17.70;99.90;;;;;;5009883;28;20026;-74
2021/06/18 01:00:31;;;;;;;10.13;7.95;;;17.60;99.90;;;;;;4992517;28;20364;-73
2021/06/18 01:02:57;;;;;;;11.43;8.38;;;17.50;99.90;;;;;;4992269;28;20018;-74
2021/06/18 01:05:24;;;;;;;11.10;9.32;;;17.50;99.90;;;;;;5009643;28;20569;-74
2021/06/18 01:08:11;;;;;;;11.80;9.63;;;17.50;99.90;;;;;;5009425;28;20025;-74
2021/06/18 01:11:08;;;;;;;11.70;9.68;;;17.40;99.90;;;;;;5009929;28;20022;-74
2021/06/18 01:13:38;;;;;;;11.50;9.23;;;17.40;99.90;;;;;;4996855;28;20403;-73
2021/06/18 01:16:07;;;;;;;10.70;9.57;;;17.30;99.90;;;;;;5009534;28;20030;-73
2021/06/18 01:18:45;;;;;;;10.60;8.98;;;17.30;99.90;;;;;;5009668;28;20026;-74
2021/06/18 01:21:22;;;;;;;9.18;8.27;;;17.30;99.90;;;;;;5009861;28;20025;-74
2021/06/18 01:24:30;;;;;;;10.80;8.48;;;17.20;99.90;;;;;;5009347;28;20434;-73
2021/06/18 01:27:30;;;;;;;9.38;8.18;;;17.10;99.90;;;;;;5023222;23;20081;-72
2021/06/18 01:30:16;;;;;;;10.35;8.00;;;17.10;99.90;;;;;;4989230;28;20038;-73
2021/06/18 01:33:05;;;;;;;10.00;7.75;;;17.00;99.90;;;;;;5011450;28;20056;-72
2021/06/18 01:35:47;;;;;;;12.57;9.85;;;17.00;99.90;;;;;;5029420;28;20024;-72
2021/06/18 01:38:15;;;;;;;10.60;9.32;;;16.90;99.90;;;;;;5029218;28;20449;-72
2021/06/18 01:40:43;;;;;;;12.63;10.18;;;16.90;99.90;;;;;;5029495;28;20033;-72
2021/06/18 01:43:09;;;;;;;10.88;9.10;;;16.90;99.90;;;;;;5029011;28;20064;-72
2021/06/18 01:45:36;;;;;;;11.20;8.30;;;16.80;99.90;;;;;;5029179;28;20039;-71
2021/06/18 01:48:04;;;;;;;10.07;9.02;;;16.80;99.90;;;;;;5011595;28;20041;-72
2021/06/18 01:50:31;;;;;;;11.60;9.90;;;16.70;99.90;;;;;;5011295;28;20491;-72
2021/06/18 01:53:08;;;;;;;10.52;9.43;;;16.70;99.90;;;;;;5011286;28;20105;-72
2021/06/18 01:55:36;;;;;;;11.48;8.95;;;16.60;99.90;;;;;;5028881;28;20556;-72
2021/06/18 01:58:05;;;;;;;11.35;8.60;;;16.60;99.90;;;;;;5029182;28;20390;-72
2021/06/18 02:00:33;;;;;;;11.98;9.48;;;16.60;99.90;;;;;;5011155;28;20053;-72
2021/06/18 02:03:04;;;;;;;10.52;9.50;;;16.60;99.90;;;;;;5029144;28;20014;-72
2021/06/18 02:05:31;;;;;;;11.52;8.60;;;16.50;99.90;;;;;;5011227;28;20075;-72
2021/06/18 02:07:58;;;;;;;9.25;8.25;;;16.50;99.90;;;;;;5028873;28;20105;-72
2021/06/18 02:10:25;;;;;;;10.50;9.23;;;16.40;99.90;;;;;;5029088;28;20099;-72
2021/06/18 02:12:51;;;;;;;11.65;9.50;;;16.40;99.90;;;;;;5028893;28;20156;-73
2021/06/18 02:15:18;;;;;;;10.00;8.52;;;16.30;99.90;;;;;;5011048;28;20052;-71
2021/06/18 02:17:45;;;;;;;9.80;8.35;;;16.30;99.90;;;;;;5028705;28;20032;-72
2021/06/18 02:20:13;;;;;;;9.25;8.18;;;16.30;99.90;;;;;;5031352;28;20108;-72
2021/06/18 02:22:40;;;;;;;9.02;8.07;;;16.30;99.90;;;;;;5032616;28;20105;-72
2021/06/18 02:25:08;;;;;;;9.50;8.05;;;16.20;99.90;;;;;;5032291;28;20024;-73
2021/06/18 02:27:34;;;;;;;12.82;10.15;;;16.20;99.90;;;;;;5032351;28;20026;-72
2021/06/18 02:30:01;;;;;;;12.30;9.45;;;16.20;99.90;;;;;;5032636;28;20482;-72
2021/06/18 02:32:30;;;;;;;11.85;9.80;;;16.10;99.90;;;;;;5014651;28;20036;-72
2021/06/18 02:34:57;;;;;;;11.10;8.90;;;16.20;99.90;;;;;;5014644;28;20028;-72
2021/06/18 02:37:23;;;;;;;9.70;8.70;;;16.10;99.90;;;;;;5032316;28;20379;-72
2021/06/18 02:39:49;;;;;;;9.80;8.25;;;16.10;99.90;;;;;;5014623;28;20028;-72
2021/06/18 02:42:15;;;;;;;11.18;8.50;;;16.10;99.90;;;;;;5014587;28;20021;-72
2021/06/18 02:44:40;;;;;;;10.50;8.93;;;16.10;99.90;;;;;;5032752;28;20051;-72
2021/06/18 02:47:12;;;;;;;11.43;10.23;;;16.00;99.90;;;;;;5032354;28;20026;-72
2021/06/18 02:49:52;;;;;;;11.70;10.50;;;16.00;99.90;;;;;;5032215;28;20025;-72
2021/06/18 02:52:32;;;;;;;14.35;10.82;;;16.00;99.90;;;;;;5032018;28;20057;-72
2021/06/18 02:55:20;;;;;;;10.02;8.90;;;16.00;99.90;;;;;;5032213;28;20390;-72
2021/06/18 02:58:14;;;;;;;10.80;9.70;;;15.90;99.90;;;;;;5031941;28;20021;-72
2021/06/18 03:00:41;;;;;;;9.23;8.10;;;15.90;99.90;;;;;;5031989;28;20025;-72
2021/06/18 03:03:10;;;;;;;11.02;9.82;;;15.80;99.90;;;;;;5031892;28;20022;-72
2021/06/18 03:05:35;;;;;;;15.85;12.40;;;15.80;99.90;;;;;;5031741;28;20036;-72
2021/06/18 03:08:08;;;;;;;14.20;9.60;;;15.80;99.90;;;;;;5014027;28;20483;-72
2021/06/18 03:10:39;;;;;;;14.77;11.45;;;15.80;99.90;;;;;;5031667;28;20120;-72
2021/06/18 03:13:09;;;;;;;14.90;12.23;;;15.80;99.90;;;;;;5013942;28;20052;-72
2021/06/18 03:15:37;;;;;;;11.52;10.32;;;15.70;99.90;;;;;;5013877;28;20041;-72
2021/06/18 03:18:04;;;;;;;13.40;12.00;;;15.70;99.90;;;;;;5013741;28;20029;-72
2021/06/18 03:20:31;;;;;;;12.23;11.00;;;15.70;99.90;;;;;;5031844;28;20021;-72
2021/06/18 03:23:00;;;;;;;15.25;12.27;;;15.70;99.90;;;;;;5031755;28;20463;-72
2021/06/18 03:25:28;;;;;;;15.63;12.48;;;15.70;99.90;;;;;;5013477;28;20026;-72
2021/06/18 03:27:55;;;;;;;13.25;11.82;;;15.70;99.90;;;;;;5013548;28;20505;-72
2021/06/18 03:30:21;;;;;;;11.25;10.05;;;15.70;99.90;;;;;;5031072;28;20421;-72
2021/06/18 03:32:49;;;;;;;14.13;11.15;;;15.70;99.90;;;;;;5013284;28;20022;-72
2021/06/18 03:35:16;;;;;;;11.45;10.32;;;15.70;99.90;;;;;;5031155;28;20025;-72
2021/06/18 03:37:42;;;;;;;13.02;11.70;;;15.70;99.90;;;;;;5031124;28;20022;-72
2021/06/18 03:40:09;;;;;;;14.10;11.27;;;15.70;99.90;;;;;;5013353;28;20363;-72
2021/06/18 03:42:36;;;;;;;15.80;11.52;;;15.70;99.90;;;;;;5013352;28;20379;-72
2021/06/18 03:45:05;;;;;;;13.38;10.95;;;15.80;99.90;;;;;;5031439;28;20045;-72
2021/06/18 03:47:32;;;;;;;15.57;13.05;;;15.80;99.90;;;;;;5031008;28;20025;-72
2021/06/18 03:49:58;;;;;;;12.32;10.38;;;15.80;99.90;;;;;;5030982;28;20040;-72
2021/06/18 03:52:24;;;;;;;13.57;10.68;;;15.90;99.90;;;;;;5031464;28;20022;-72
2021/06/18 03:54:50;;;;;;;16.52;13.45;;;15.90;99.90;;;;;;5013131;28;20406;-73
2021/06/18 03:57:18;;;;;;;14.98;11.55;;;16.00;99.90;;;;;;5030637;28;20478;-72
2021/06/18 03:59:45;;;;;;;15.02;11.63;;;16.00;99.90;;;;;;5030746;28;20517;-72
2021/06/18 04:02:13;;;;;;;11.88;10.65;;;16.10;99.90;;;;;;5030726;28;20022;-72
2021/06/18 04:04:40;;;;;;;13.18;11.55;;;16.10;99.90;;;;;;5030826;28;20017;-73
2021/06/18 04:07:10;;;;;;;12.43;11.13;;;16.20;99.90;;;;;;5030589;28;20473;-71
2021/06/18 04:09:37;;;;;;;12.98;10.20;;;16.20;99.90;;;;;;5030913;28;20021;-72
2021/06/18 04:12:04;;;;;;;14.43;10.63;;;16.30;99.90;;;;;;5030551;28;20037;-72
2021/06/18 04:14:31;;;;;;;13.40;11.05;;;16.40;99.90;;;;;;5013311;28;20025;-72
2021/06/18 04:16:56;;;;;;;12.75;11.27;;;16.50;99.90;;;;;;5030266;28;20025;-72
2021/06/18 04:19:23;;;;;;;13.82;11.43;;;16.60;99.90;;;;;;5030410;28;20032;-72
2021/06/18 04:21:51;;;;;;;13.07;11.68;;;16.60;99.90;;;;;;5030322;28;20097;-72
2021/06/18 04:24:16;;;;;;;15.25;11.35;;;16.70;99.90;;;;;;5030366;28;20022;-72
2021/06/18 04:26:43;;;;;;;13.00;11.70;;;16.70;99.90;;;;;;5012269;28;20122;-72
2021/06/18 04:29:10;;;;;;;14.43;11.23;;;16.80;99.90;;;;;;5012530;28;20487;-70
2021/06/18 04:31:36;;;;;;;13.35;11.68;;;16.90;99.90;;;;;;5030181;28;20390;-72
2021/06/18 04:34:04;;;;;;;13.85;10.50;;;16.90;99.90;;;;;;5012478;28;20032;-72
2021/06/18 04:36:31;;;;;;;13.40;10.85;;;16.90;99.90;;;;;;5012253;28;20482;-72
2021/06/18 04:38:58;;;;;;;13.93;11.45;;;16.90;99.90;;;;;;5012362;28;20174;-72
2021/06/18 04:41:24;;;;;;;13.35;11.77;;;17.00;99.90;;;;;;5012123;28;20049;-72
2021/06/18 04:43:50;;;;;;;13.50;10.88;;;17.00;99.90;;;;;;5029103;28;20179;-73
2021/06/18 04:46:15;;;;;;;13.60;10.55;;;17.10;99.90;;;;;;5012093;28;20542;-72
2021/06/18 04:48:41;;;;;;;12.50;11.05;;;17.10;99.90;;;;;;5029899;28;20394;-72
2021/06/18 04:51:07;;;;;;;11.68;10.48;;;17.10;99.90;;;;;;5012142;28;20156;-72
2021/06/18 04:53:33;;;;;;;14.68;10.55;;;17.20;99.90;;;;;;5011965;28;20025;-72
2021/06/18 04:56:01;;;;;;;12.20;10.98;;;17.30;99.90;;;;;;5011718;28;20042;-72
2021/06/18 04:58:27;;;;;;;12.50;9.90;;;17.40;99.90;;;;;;5029927;28;20021;-72
2021/06/18 05:00:52;;;;;;;13.18;11.32;;;17.50;99.90;;;;;;5011943;28;20029;-72
2021/06/18 05:03:18;;;;;;;12.25;10.95;;;17.60;99.90;;;;;;5011898;28;20056;-72
2021/06/18 05:05:43;;;;;;;12.45;11.15;;;17.80;99.90;;;;;;5011930;28;20501;-72
2021/06/18 05:08:09;;;;;;;13.35;10.23;;;18.00;99.90;;;;;;5011825;28;20437;-72
2021/06/18 05:10:35;;;;;;;11.65;10.48;;;18.20;99.90;;;;;;5029682;28;20021;-72
2021/06/18 05:13:00;;;;;;;14.45;11.45;;;18.30;99.90;;;;;;5029845;28;20025;-72
2021/06/18 05:15:26;;;;;;;13.65;10.52;;;18.50;99.90;;;;;;5011868;28;20030;-73
2021/06/18 05:17:51;;;;;;;10.90;9.68;;;18.70;99.90;;;;;;5011850;28;20128;-74
2021/06/18 05:20:17;;;;;;;12.95;10.15;;;18.80;99.90;;;;;;5011757;28;20394;-74
2021/06/18 05:22:43;;;;;;;12.23;9.57;;;18.90;99.90;;;;;;5011668;28;20498;-74
2021/06/18 05:25:09;;;;;;;14.52;9.90;;;19.00;99.90;;;;;;5011448;28;20025;-75
2021/06/18 05:27:35;;;;;;;12.52;10.18;;;19.10;99.90;;;;;;5012263;28;20370;-74
2021/06/18 05:30:00;;;;;;;12.48;8.85;;;19.30;99.90;;;;;;5029402;28;20017;-74
2021/06/18 05:32:26;;;;;;;14.07;9.45;;;19.40;99.90;;;;;;5029754;28;20053;-74
2021/06/18 05:34:52;;;;;;;15.50;9.70;;;19.60;99.90;;;;;;5011622;28;20037;-74
2021/06/18 05:37:17;;;;;;;13.10;8.75;;;19.80;99.90;;;;;;5029155;28;20084;-74
2021/06/18 05:39:43;;;;;;;11.68;7.90;;;19.90;99.90;;;;;;5029525;28;20022;-75
2021/06/18 05:42:10;;;;;;;12.35;8.75;;;20.10;99.90;;;;;;5011510;28;20022;-74
2021/06/18 05:44:35;;;;;;;8.82;7.70;;;20.30;99.90;;;;;;5011521;28;20109;-74
2021/06/18 05:47:01;;;;;;;9.82;7.97;;;20.40;99.90;;;;;;5029132;28;20478;-75
2021/06/18 05:49:27;;;;;;;10.65;7.70;;;20.60;99.90;;;;;;5011468;28;20490;-74
2021/06/18 05:51:52;;;;;;;10.68;7.55;;;20.70;99.90;;;;;;5011383;28;20039;-74
2021/06/18 05:54:18;;;;;;;8.48;7.57;;;20.80;99.90;;;;;;5030442;28;20417;-74
2021/06/18 05:56:44;;;;;;;9.57;7.05;;;20.90;99.90;;;;;;5032984;28;20129;-74
2021/06/18 05:59:09;;;;;;;9.00;7.60;;;21.00;99.90;;;;;;5033280;28;20072;-74
2021/06/18 06:01:35;;;;;;;10.45;8.38;;;21.00;99.90;;;;;;5033181;28;20021;-74
2021/06/18 06:04:00;;;;;;;10.75;7.47;;;21.10;99.90;;;;;;5032933;28;20022;-75
2021/06/18 06:06:27;;;;;;;12.82;7.88;;;21.20;99.90;;;;;;5032843;28;20098;-75
2021/06/18 06:08:53;;;;;;;10.68;7.90;;;21.20;99.90;;;;;;5015088;28;20570;-75
2021/06/18 06:11:20;;;;;;;14.40;8.50;;;21.40;99.90;;;;;;5032894;28;20028;-75
2021/06/18 06:13:46;;;;;;;10.45;8.35;;;21.50;99.90;;;;;;5015076;28;20026;-72
2021/06/18 06:16:12;;;;;;;11.25;8.98;;;21.70;99.90;;;;;;5032764;28;20029;-75
2021/06/18 06:18:38;;;;;;;14.50;8.45;;;21.80;99.90;;;;;;5032666;28;20021;-74
2021/06/18 06:21:04;;;;;;;13.05;8.65;;;21.90;99.90;;;;;;5032743;28;20025;-75
2021/06/18 06:23:29;;;;;;;11.77;9.07;;;22.00;99.90;;;;;;5014948;28;20034;-75
2021/06/18 06:25:55;;;;;;;11.77;8.35;;;22.20;99.90;;;;;;5014428;28;20038;-75
2021/06/18 06:28:21;;;;;;;10.82;8.13;;;22.30;99.90;;;;;;5032873;28;20025;-74
2021/06/18 06:30:46;;;;;;;11.20;8.18;;;22.40;99.90;;;;;;5014741;28;20021;-74
2021/06/18 06:33:13;;;;;;;10.55;7.40;;;22.50;99.90;;;;;;5032425;28;20064;-75
2021/06/18 06:35:39;;;;;;;10.15;7.50;;;22.50;99.90;;;;;;5032403;28;20022;-75
2021/06/18 06:38:04;;;;;;;14.02;8.68;;;22.70;99.90;;;;;;5014521;28;20410;-75
2021/06/18 06:40:30;;;;;;;10.60;7.78;;;22.80;99.90;;;;;;5014568;28;20105;-75
2021/06/18 06:42:56;;;;;;;10.07;7.82;;;22.90;99.90;;;;;;5032275;28;20021;-75
2021/06/18 06:45:22;;;;;;;9.55;7.57;;;23.10;99.90;;;;;;5032168;28;20521;-75
2021/06/18 06:47:49;;;;;;;10.65;7.80;;;23.20;99.90;;;;;;5014406;28;20408;-75
2021/06/18 06:50:15;;;;;;;11.38;7.65;;;23.20;99.90;;;;;;5032075;28;20042;-75
2021/06/18 06:52:40;;;;;;;14.32;8.90;;;23.40;99.90;;;;;;5032064;28;20023;-75
2021/06/18 06:55:07;;;;;;;12.30;7.82;;;23.50;99.90;;;;;;5015186;28;20028;-75
2021/06/18 06:57:32;;;;;;;12.35;8.27;;;23.60;99.90;;;;;;5014140;28;20032;-75
2021/06/18 06:59:58;;;;;;;12.48;8.95;;;23.70;99.90;;;;;;5014202;28;20402;-75
2021/06/18 07:02:23;;;;;;;15.73;10.15;;;23.70;99.90;;;;;;5032179;28;20029;-75
2021/06/18 07:04:49;;;;;;;13.73;9.55;;;23.80;99.90;;;;;;5031830;28;20446;-75
2021/06/18 07:07:15;;;;;;;13.38;9.55;;;24.00;99.90;;;;;;5030773;28;20029;-75
2021/06/18 07:09:40;;;;;;;12.73;9.45;;;24.10;99.90;;;;;;5032033;28;20022;-75
2021/06/18 07:12:07;;;;;;;12.10;8.60;;;24.20;99.90;;;;;;5031854;28;20037;-75
2021/06/18 07:14:37;;;;;;;13.45;8.82;;;24.30;99.90;;;;;;5031915;28;20087;-74
2021/06/18 07:17:03;;;;;;;11.85;8.88;;;24.50;99.90;;;;;;5013682;28;20133;-75
2021/06/18 07:19:29;;;;;;;12.43;8.93;;;24.70;99.90;;;;;;5014149;28;20075;-75
2021/06/18 07:21:54;;;;;;;13.82;9.68;;;24.80;99.90;;;;;;5032082;28;20034;-75
2021/06/18 07:24:20;;;;;;;12.10;9.32;;;24.80;99.90;;;;;;5013801;28;20071;-75
2021/06/18 07:26:45;;;;;;;13.13;9.65;;;24.90;99.90;;;;;;5056068;22;20045;-74
2021/06/18 07:29:11;;;;;;;11.00;8.68;;;25.10;99.90;;;;;;5031505;28;20101;-74
2021/06/18 07:31:37;;;;;;;11.68;8.80;;;25.20;99.90;;;;;;5013669;28;20018;-74
2021/06/18 07:34:03;;;;;;;10.23;8.93;;;25.30;99.90;;;;;;5031364;28;20033;-74
2021/06/18 07:36:29;;;;;;;11.23;9.50;;;25.50;99.90;;;;;;5031279;28;20025;-74
2021/06/18 07:38:55;;;;;;;12.25;8.38;;;25.60;99.90;;;;;;5031215;28;20022;-74
2021/06/18 07:41:21;;;;;;;11.90;9.57;;;25.70;99.70;;;;;;5013435;28;20094;-74
2021/06/18 07:43:47;;;;;;;11.18;8.20;;;25.70;99.90;;;;;;5031399;28;20017;-74
2021/06/18 07:46:12;;;;;;;19.52;9.20;;;25.80;98.80;;;;;;5031041;28;20438;-75
2021/06/18 07:48:39;;;;;;;9.27;7.75;;;25.90;98.10;;;;;;5013296;28;20494;-74
2021/06/18 07:51:04;;;;;;;13.23;8.40;;;26.10;98.40;;;;;;5030988;28;20076;-74
2021/06/18 07:53:30;;;;;;;11.38;8.90;;;26.40;95.90;;;;;;5031423;28;20033;-74
2021/06/18 07:55:56;;;;;;;10.70;8.65;;;26.40;94.70;;;;;;5031517;28;20029;-74
2021/06/18 07:58:21;;;;;;;8.23;7.20;;;26.50;95.80;;;;;;5030851;28;20545;-74
2021/06/18 08:00:47;;;;;;;10.20;8.55;;;26.60;94.70;;;;;;5030755;28;20021;-74
2021/06/18 08:03:12;;;;;;;12.13;8.70;;;26.80;93.60;;;;;;5030797;28;20018;-74
2021/06/18 08:05:38;;;;;;;12.82;8.80;;;26.90;92.60;;;;;;5012858;28;20017;-73
2021/06/18 08:08:04;;;;;;;9.05;8.02;;;27.00;93.30;;;;;;5030901;28;20033;-74
2021/06/18 08:10:30;;;;;;;10.10;7.97;;;27.00;92.40;;;;;;5030641;28;20057;-74
2021/06/18 08:12:56;;;;;;;9.25;8.23;;;27.20;91.50;;;;;;5030624;28;20025;-74
2021/06/18 08:15:21;;;;;;;8.80;7.80;;;27.30;91.30;;;;;;5030575;28;20036;-74
2021/06/18 08:17:47;;;;;;;10.50;8.52;;;27.50;90.40;;;;;;5012725;28;20542;-74
2021/06/18 08:20:14;;;;;;;8.80;7.90;;;27.60;88.80;;;;;;5030414;28;20022;-74
2021/06/18 08:22:40;;;;;;;9.52;8.27;;;27.70;86.70;;;;;;5030458;28;20021;-74
2021/06/18 08:25:07;;;;;;;8.88;7.63;;;27.90;87.80;;;;;;5030518;28;20032;-75
2021/06/18 08:27:32;;;;;;;9.30;7.35;;;28.00;84.90;;;;;;5030168;28;20034;-74
2021/06/18 08:29:58;;;;;;;9.23;7.40;;;28.20;86.40;;;;;;5030310;28;20107;-74
2021/06/18 08:32:24;;;;;;;8.88;8.02;;;28.60;83.20;;;;;;5030241;28;20547;-74
2021/06/18 08:34:49;;;;;;;8.88;7.20;;;28.70;77.10;;;;;;5030357;28;20061;-74
2021/06/18 08:37:15;;;;;;;8.57;7.70;;;28.80;80.20;;;;;;5012271;28;20438;-74
2021/06/18 08:39:40;;;;;;;11.88;7.18;;;28.90;79.00;;;;;;5029906;28;20080;-75
2021/06/18 08:42:08;;;;;;;10.98;7.20;;;29.10;76.80;;;;;;5013425;28;20370;-74
2021/06/18 08:44:34;;;;;;;7.70;6.68;;;29.40;81.50;;;;;;5029892;28;20021;-72
2021/06/18 08:46:59;;;;;;;8.07;6.80;;;29.70;73.20;;;;;;5012091;28;20033;-74
2021/06/18 08:49:25;;;;;;;8.35;6.70;;;30.00;67.10;;;;;;5029935;28;20120;-74
2021/06/18 08:51:51;;;;;;;7.25;6.28;;;30.20;65.10;;;;;;5029902;28;20032;-74
2021/06/18 08:54:16;;;;;;;8.90;6.95;;;30.30;68.10;;;;;;5012114;28;20052;-74
2021/06/18 08:56:43;;;;;;;8.15;6.57;;;30.60;66.40;;;;;;5029737;28;20048;-75
2021/06/18 08:59:09;;;;;;;11.32;7.68;;;30.70;64.80;;;;;;5012282;28;20108;-74
2021/06/18 09:01:35;;;;;;;10.02;7.57;;;30.90;64.80;;;;;;5012241;28;20446;-74
2021/06/18 09:04:04;;;;;;;7.90;7.10;;;30.90;63.80;;;;;;5030036;28;20071;-73
2021/06/18 09:06:31;;;;;;;12.40;7.03;;;31.10;63.30;;;;;;5012123;28;20025;-75
2021/06/18 09:09:14;;;;;;;11.02;7.00;;;31.40;63.50;;;;;;5030245;28;20086;-73
2021/06/18 09:11:52;;;;;;;11.32;7.45;;;31.60;61.90;;;;;;5029992;28;20026;-73
2021/06/18 09:14:33;;;;;;;8.15;7.22;;;31.70;61.60;;;;;;5030159;28;20064;-73
2021/06/18 09:17:12;;;;;;;8.80;6.65;;;31.90;60.80;;;;;;5029907;28;20048;-74
2021/06/18 09:19:52;;;;;;;7.55;6.32;;;32.00;59.30;;;;;;5030288;28;20044;-74
2021/06/18 09:22:22;;;;;;;8.15;6.63;;;32.10;59.10;;;;;;5030479;28;20029;-74
2021/06/18 09:25:06;;;;;;;7.05;6.07;;;32.30;58.60;;;;;;5012378;28;20399;-73
2021/06/18 09:27:34;;;;;;;7.68;5.75;;;32.60;59.40;;;;;;5029252;28;20041;-73
2021/06/18 09:30:16;;;;;;;6.30;5.40;;;32.90;57.80;;;;;;5028790;28;20040;-73
2021/06/18 09:33:06;;;;;;;6.35;5.65;;;33.30;55.80;;;;;;5029672;28;20040;-74
2021/06/18 09:35:33;;;;;;;6.05;5.50;;;33.40;54.30;;;;;;5011538;28;20036;-74
2021/06/18 09:38:02;;;;;;;8.10;5.20;;;33.70;53.10;;;;;;5029173;28;20108;-74
2021/06/18 09:40:29;;;;;;;6.38;5.70;;;34.10;51.30;;;;;;5029212;28;20478;-74
2021/06/18 09:43:03;;;;;;;6.07;5.47;;;34.50;50.80;;;;;;5029257;28;20026;-74
2021/06/18 09:45:33;;;;;;;8.05;5.65;;;35.00;49.40;;;;;;5029508;28;20021;-74
2021/06/18 09:48:16;;;;;;;7.50;5.65;;;35.60;49.20;;;;;;5011461;28;20025;-74
2021/06/18 09:50:57;;;;;;;8.93;5.32;;;36.70;46.40;;;;;;5011437;28;20033;-74
2021/06/18 09:53:25;;;;;;;7.10;4.97;;;39.00;40.90;;;;;;5029478;28;20038;-74
2021/06/18 09:56:13;;;;;;;9.52;5.43;;;41.90;36.00;;;;;;5011368;28;20079;-75
2021/06/18 09:58:44;;;;;;;6.22;5.63;;;43.40;31.60;;;;;;5029074;28;20128;-74
2021/06/18 10:01:16;;;;;;;5.10;4.60;;;44.80;30.00;;;;;;5029049;28;20026;-74
2021/06/18 10:03:59;;;;;;;10.98;5.60;;;47.30;29.40;;;;;;5028963;28;20513;-75
2021/06/18 10:06:26;;;;;;;5.88;4.90;;;48.20;27.00;;;;;;5029062;28;20037;-75
2021/06/18 10:08:52;;;;;;;6.07;4.70;;;49.70;26.00;;;;;;5028911;28;20490;-75
2021/06/18 10:11:18;;;;;;;4.63;4.20;;;50.50;25.50;;;;;;5028946;28;20091;-75
2021/06/18 10:13:44;;;;;;;8.77;5.00;;;51.30;25.70;;;;;;5028924;28;20474;-74
2021/06/18 10:16:10;;;;;;;5.32;4.47;;;51.70;24.10;;;;;;5028766;28;20433;-74
2021/06/18 10:18:35;;;;;;;7.03;4.80;;;52.30;23.90;;;;;;5028798;28;20025;-74
2021/06/18 10:21:04;;;;;;;4.93;4.50;;;50.80;23.70;;;;;;5028816;28;20071;-75
2021/06/18 10:23:30;;;;;;;4.75;4.25;;;51.90;24.10;;;;;;5011143;28;20079;-75
2021/06/18 10:26:02;;;;;;;6.65;4.90;;;52.60;24.20;;;;;;5010809;28;20123;-74
2021/06/18 10:28:30;;;;;;;6.05;4.90;;;53.00;23.10;;;;;;5011287;28;20437;-74
2021/06/18 10:30:57;;;;;;;6.15;5.20;;;53.20;23.20;;;;;;5028591;28;20123;-76
2021/06/18 10:33:26;;;;;;;6.82;5.47;;;53.20;22.90;;;;;;5028704;28;20470;-75
2021/06/18 10:35:57;;;;;;;5.95;4.47;;;53.70;22.40;;;;;;5011503;28;20442;-76
2021/06/18 10:38:34;;;;;;;4.93;4.40;;;53.50;22.30;;;;;;5028673;28;20044;-75
2021/06/18 10:41:15;;;;;;;5.32;4.53;;;52.80;22.90;;;;;;5011660;28;20030;-74
2021/06/18 10:43:42;;;;;;;5.80;4.50;;;53.30;22.50;;;;;;5014528;28;20434;-74
2021/06/18 10:46:11;;;;;;;5.18;4.68;;;54.00;23.00;;;;;;5031933;28;20048;-75
2021/06/18 10:48:46;;;;;;;5.60;4.90;;;53.90;21.80;;;;;;5032105;28;20028;-74
2021/06/18 10:51:27;;;;;;;5.57;4.35;;;52.40;21.60;;;;;;5014327;28;20021;-75
2021/06/18 10:53:55;;;;;;;5.65;4.57;;;52.60;22.60;;;;;;5032019;28;20491;-75
2021/06/18 10:56:46;;;;;;;5.93;4.47;;;53.40;22.90;;;;;;5031946;28;20112;-75
2021/06/18 10:59:28;;;;;;;5.47;4.53;;;54.10;21.90;;;;;;5014240;28;20052;-75
2021/06/18 11:01:53;;;;;;;4.72;4.25;;;53.40;21.10;;;;;;5014154;28;20026;-75
2021/06/18 11:04:56;;;;;;;5.28;4.78;;;54.40;21.90;;;;;;5014696;28;20510;-75
2021/06/18 11:07:24;;;;;;;5.32;4.40;;;53.50;21.70;;;;;;4935402;29;20127;-75
2021/06/18 11:09:54;;;;;;;4.80;4.25;;;53.00;22.20;;;;;;5017378;28;20104;-75
2021/06/18 11:12:23;;;;;;;4.50;4.15;;;54.10;21.80;;;;;;5031901;28;20075;-75
2021/06/18 11:14:53;;;;;;;4.65;4.25;;;54.90;22.30;;;;;;5031579;28;20601;-75
2021/06/18 11:17:37;;;;;;;4.32;4.00;;;55.30;21.10;;;;;;5031693;28;20032;-75
2021/06/18 11:20:05;;;;;;;4.68;4.28;;;55.10;20.70;;;;;;5031582;28;20104;-76
2021/06/18 11:22:36;;;;;;;4.60;4.20;;;55.90;20.60;;;;;;5031954;28;20467;-75
2021/06/18 11:25:04;;;;;;;5.15;4.75;;;55.80;20.40;;;;;;5013562;28;20029;-76
2021/06/18 11:27:31;;;;;;;5.10;4.60;;;55.30;20.50;;;;;;5031305;28;20065;-75
2021/06/18 11:30:28;;;;;;;4.72;4.22;;;54.80;20.60;;;;;;5013557;28;20076;-76
2021/06/18 11:32:56;;;;;;;4.53;4.13;;;53.30;21.00;;;;;;5013507;28;20022;-75
2021/06/18 11:35:33;;;;;;;4.50;4.10;;;53.30;23.10;;;;;;5013246;28;20502;-75
2021/06/18 11:38:17;;;;;;;5.03;4.53;;;53.80;21.40;;;;;;5031194;28;20026;-76
2021/06/18 11:40:44;;;;;;;5.22;4.60;;;54.00;22.50;;;;;;5031123;28;20039;-74
2021/06/18 11:43:11;;;;;;;5.40;4.30;;;54.40;21.10;;;;;;5031632;28;20390;-75
2021/06/18 11:45:42;;;;;;;4.85;4.38;;;55.60;21.20;;;;;;5030970;28;20025;-75
2021/06/18 11:48:16;;;;;;;4.35;3.90;;;56.60;20.50;;;;;;5013196;28;20025;-76
2021/06/18 11:50:43;;;;;;;5.32;4.63;;;57.00;20.50;;;;;;5031045;28;20036;-75
2021/06/18 11:53:10;;;;;;;4.90;4.40;;;57.30;20.30;;;;;;5030528;28;20021;-75
2021/06/18 11:55:36;;;;;;;4.28;3.88;;;56.70;20.20;;;;;;5030777;28;20014;-75
2021/06/18 11:58:01;;;;;;;4.10;3.80;;;54.60;21.00;;;;;;5013039;28;20039;-75
2021/06/18 12:00:34;;;;;;;3.97;3.67;;;53.60;21.60;;;;;;5030746;28;20028;-75
2021/06/18 12:03:05;;;;;;;4.07;3.67;;;53.50;22.00;;;;;;5030682;28;20030;-75
2021/06/18 12:05:35;;;;;;;4.53;3.75;;;51.70;22.70;;;;;;5030686;28;20389;-74
2021/06/18 12:08:11;;;;;;;4.35;3.95;;;48.60;23.00;;;;;;5012585;28;20079;-75
2021/06/18 12:10:37;;;;;;;4.07;3.78;;;48.10;24.60;;;;;;5030727;28;20068;-75
2021/06/18 12:13:03;;;;;;;4.30;3.92;;;48.50;24.00;;;;;;5012749;28;20021;-74
2021/06/18 12:15:33;;;;;;;5.15;4.45;;;47.90;24.90;;;;;;5030421;28;20028;-75
2021/06/18 12:18:01;;;;;;;4.10;3.70;;;49.00;24.10;;;;;;5030667;28;20060;-75
2021/06/18 12:20:30;;;;;;;4.57;3.75;;;50.20;22.20;;;;;;5030649;28;20071;-75
2021/06/18 12:22:56;;;;;;;4.45;3.70;;;50.30;23.10;;;;;;5012677;28;20024;-75
2021/06/18 12:25:22;;;;;;;6.18;3.92;;;51.00;23.10;;;;;;5030424;28;20029;-75
2021/06/18 12:27:48;;;;;;;4.70;4.30;;;50.70;22.10;;;;;;5029872;28;20052;-75
2021/06/18 12:30:16;;;;;;;3.92;3.35;;;50.70;22.60;;;;;;5030055;28;20025;-75
2021/06/18 12:32:43;;;;;;;3.38;3.03;;;50.00;22.70;;;;;;5030239;28;20041;-75
2021/06/18 12:35:12;;;;;;;7.13;3.38;;;51.00;22.00;;;;;;5012128;28;20033;-75
2021/06/18 12:37:40;;;;;;;4.43;2.67;;;51.40;19.90;;;;;;5012099;28;20030;-75
2021/06/18 12:40:23;;;;;;;2.40;2.20;;;51.50;19.20;;;;;;5029845;28;20018;-75
2021/06/18 12:42:52;;;;;;;3.63;3.00;;;52.40;18.50;;;;;;5030287;28;20036;-75
2021/06/18 12:45:26;;;;;;;3.35;2.80;;;52.40;18.90;;;;;;5029878;28;20026;-75
2021/06/18 12:48:07;;;;;;;2.90;2.70;;;52.10;19.90;;;;;;5011961;28;20034;-75